• NC Software is having a Black Friday Sale Event thru December 4th on Logbook Pro, APDL - Airline Pilot Logbook, Cirrus Elite Binders, and more. Use coupon code BF2020 at checkout to redeem 15% off your purchase. Click here to shop now.
  • NC Software is proud to announce the release of APDL - Airline Pilot Logbook version 10.0. Click here to view APDL on the Apple App store and install now.

Delta Connection incident in SAV...

SkyBoy1981

Bring a towel!
Joined
Jul 17, 2004
Posts
1,482
Total Time
5000
Not sure how serious it is, but I'm being told that a Delta Connection aircraft of some sort has ran off of the runway in Savannah. Anyone know anything?
 

Hovernut

Home Based Again!
Joined
May 7, 2002
Posts
720
Total Time
8000
Haven't heard anything, but local radar shows that nasty frontal system rolling through there right now. Hope all's well there!!
 

Oakum_Boy

supercalifragilistic
Joined
Nov 10, 2003
Posts
2,405
Total Time
24
Well, ASQ 4961 SAV-ATL has been cancelled. Don't know the reason, though.
 

OPECJet

1700
Joined
Nov 7, 2003
Posts
2,312
Total Time
5K
Buddy of mine there said a CRJ-700 was in the dirt. No one hurt.
 

Hovernut

Home Based Again!
Joined
May 7, 2002
Posts
720
Total Time
8000
W/S abort on t/o maybe? Glad to hear only thing hurt is the dirt & feelings.
 

Oakum_Boy

supercalifragilistic
Joined
Nov 10, 2003
Posts
2,405
Total Time
24
[FONT=Monospace,Courier]KSAV 282200Z 01004KT 2SM +RA BR BKN021 OVC055 17/15 A2994 RMK AO2 P0004[/FONT]
[FONT=Monospace,Courier]
KSAV 282153Z 01004KT 2SM +RA BR SCT040 OVC060 17/15 A2994 RMK AO2 RAB07 SLP136 OCNL LTGCG DSNT W CB DSNT W P0011 T01670150[/FONT]
[FONT=Monospace,Courier]
KSAV 282113Z 16006KT 8SM -RA BKN085 BKN110 19/13 A2989 RMK AO2 RAB07 OCNL LTGCG DSNT W CB DSNT W P0000


[/FONT]
 

dooork

Well-known member
Joined
Oct 24, 2003
Posts
445
Total Time
13000
Just got back from SAV. Saw the ASA 700 off the end of the runway...maybe about 50- 100 feet runway18.
 
Last edited:

Salukipilot4590

IS WE ON TV?
Joined
Jan 15, 2006
Posts
1,512
Total Time
250.1
Glad to hear everyone's okay!

Keep it safe guys!
 

WSurf

The Smack Down!
Joined
Apr 26, 2002
Posts
3,690
Total Time
6500
Just got back from SAV. Saw the ASA 700 off the end of the runway...maybe about 50- 100 feet runway18.

I can hear it now on the news, damn no experience regional Pilots with another accident!


:) Good to hear nobody was hurt!
 

Kerveball

Well-known member
Joined
Dec 19, 2005
Posts
61
Total Time
Plenty
This would have never happened if the flight crew were all black females.....
 

Stifler's Mom

MILF...MILF...MILF
Joined
Oct 12, 2003
Posts
5,125
Total Time
4000
Not sure who landed, but I am sure about who is accountable............

Yup...and on a similar note, you can add me to the list of people that don't give a crap how softly you land when you leave 2-3K feet of runway behind us in the process.
 
Top